Chrysanthemum — C6XO4 — position and weather

sailwx.info

Track history (hours):
 
Tides and Currents Weather Stations Pressure Air Temp Water Temp Dewpoint Dewpoint Depression Visibility Wind Speed Wind Dir Waves Ship Positions

Chrysanthemum

Last reported at 2015-Mar-24 23:11 UTC. Time now 2015-Mar-26 23:51 UTC.
Position N 01°28' E 103°50'.

Length 244 m; draft 8 m.

Type: Tanker. MMSI: 311015300.

Date/timePositionNaut miles runAvg speedWind from/ knotsBaromVisibWave heightAir tempDewpointWater temp
2015-Mar-24 23:11N 01°28' E 103°50'0 0.0
2015-Mar-24 22:05N 01°28' E 103°50'  
2015-Mar-20 20:06N 01°28' E 103°50'0 0.0
2015-Mar-18 21:22N 01°28' E 103°50'0 0.0
2015-Mar-18 20:32N 01°28' E 103°50'0 0.0
2015-Mar-18 19:32N 01°28' E 103°50'0 0.0
2015-Mar-18 18:32N 01°28' E 103°50'0 0.0
2015-Mar-18 17:25N 01°28' E 103°50'0 0.0
2015-Mar-18 13:32N 01°28' E 103°50'0 0.0
2015-Mar-18 11:33N 01°28' E 103°50'0 0.0
2015-Mar-18 10:29N 01°28' E 103°50'0 0.0
2015-Mar-18 09:21N 01°28' E 103°50'0 0.2
2015-Mar-18 07:24N 01°28' E 103°50'10 5.5
2015-Mar-18 05:29N 01°24' E 103°59'7 7.7
2015-Mar-18 04:33N 01°20' E 104°05'3 3.1
2015-Mar-18 03:34N 01°17' E 104°04'8 7.8
2015-Mar-18 02:33N 01°15' E 103°56'2 1.5
2015-Mar-18 01:25N 01°15' E 103°54'0 0.0
2015-Mar-18 00:19N 01°15' E 103°54'0 0.0
2015-Mar-17 23:13N 01°15' E 103°54'0 0.0
2015-Mar-17 22:19N 01°15' E 103°54'0 0.0
2015-Mar-17 21:25N 01°15' E 103°54'0 0.0
2015-Mar-17 20:31N 01°15' E 103°54'0 0.0
2015-Mar-17 19:31N 01°15' E 103°54'0 0.0
2015-Mar-17 18:13N 01°15' E 103°54'0 0.0
2015-Mar-17 17:31N 01°15' E 103°54'0 0.0
2015-Mar-17 16:31N 01°15' E 103°54'0 0.0
2015-Mar-17 15:07N 01°15' E 103°54'0 0.0
2015-Mar-17 14:28N 01°15' E 103°54'0 0.0
2015-Mar-17 13:31N 01°15' E 103°54'0 0.0
2015-Mar-17 12:16N 01°15' E 103°54'0 0.1
2015-Mar-17 11:25N 01°15' E 103°54'3 3.5
2015-Mar-17 10:33N 01°16' E 103°57'8 7.6
2015-Mar-17 09:29N 01°17' E 104°05'9 8.8
2015-Mar-17 08:29N 01°18' E 104°14'  
Track history (hours):
 
Tides and Currents Weather Stations Pressure Air Temp Water Temp Dewpoint Dewpoint Depression Visibility Wind Speed Wind Dir Waves Ship Positions

Chrysanthemum

Last reported at 2015-Mar-24 23:11 UTC. Time now 2015-Mar-26 23:51 UTC.
Position N 01°28' E 103°50'.

Length 244 m; draft 8 m.

Type: Tanker. MMSI: 311015300.

Date/timePositionNaut miles runAvg speedWind from/ knotsBaromVisibWave heightAir tempDewpointWater temp
2015-Mar-24 23:11N 01°28' E 103°50'0 0.0
2015-Mar-24 22:05N 01°28' E 103°50'  
2015-Mar-20 20:06N 01°28' E 103°50'0 0.0
2015-Mar-18 21:22N 01°28' E 103°50'0 0.0
2015-Mar-18 20:32N 01°28' E 103°50'0 0.0
2015-Mar-18 19:32N 01°28' E 103°50'0 0.0
2015-Mar-18 18:32N 01°28' E 103°50'0 0.0
2015-Mar-18 17:25N 01°28' E 103°50'0 0.0
2015-Mar-18 13:32N 01°28' E 103°50'0 0.0
2015-Mar-18 11:33N 01°28' E 103°50'0 0.0
2015-Mar-18 10:29N 01°28' E 103°50'0 0.0
2015-Mar-18 09:21N 01°28' E 103°50'0 0.2
2015-Mar-18 07:24N 01°28' E 103°50'10 5.5
2015-Mar-18 05:29N 01°24' E 103°59'7 7.7
2015-Mar-18 04:33N 01°20' E 104°05'3 3.1
2015-Mar-18 03:34N 01°17' E 104°04'8 7.8
2015-Mar-18 02:33N 01°15' E 103°56'2 1.5
2015-Mar-18 01:25N 01°15' E 103°54'0 0.0
2015-Mar-18 00:19N 01°15' E 103°54'0 0.0
2015-Mar-17 23:13N 01°15' E 103°54'0 0.0
2015-Mar-17 22:19N 01°15' E 103°54'0 0.0
2015-Mar-17 21:25N 01°15' E 103°54'0 0.0
2015-Mar-17 20:31N 01°15' E 103°54'0 0.0
2015-Mar-17 19:31N 01°15' E 103°54'0 0.0
2015-Mar-17 18:13N 01°15' E 103°54'0 0.0
2015-Mar-17 17:31N 01°15' E 103°54'0 0.0
2015-Mar-17 16:31N 01°15' E 103°54'0 0.0
2015-Mar-17 15:07N 01°15' E 103°54'0 0.0
2015-Mar-17 14:28N 01°15' E 103°54'0 0.0
2015-Mar-17 13:31N 01°15' E 103°54'0 0.0
2015-Mar-17 12:16N 01°15' E 103°54'0 0.1
2015-Mar-17 11:25N 01°15' E 103°54'3 3.5
2015-Mar-17 10:33N 01°16' E 103°57'8 7.6
2015-Mar-17 09:29N 01°17' E 104°05'9 8.8
2015-Mar-17 08:29N 01°18' E 104°14'  

Dump ship's entire track history